This is the latest recevied weather packets stored in our database for station/object WX6HNX-6. If no packets are shown the sender has not sent any weather packets the latest 10 day(s).
| Time | Temp. | Humidity | Pressure | Rain* | Wind** | Luminosity | Snow |
|---|---|---|---|---|---|---|---|
| 1777587117 | 28.89° C | 30% | 1011.1 hPa | 0 mm | - | - | - |
| 1777557829 | 11.67° C | 69% | 1014.1 hPa | 0 mm | - | - | - |
| 1777556929 | 11.11° C | 68% | 1014 hPa | 0 mm | - | - | - |
| 1777555729 | 11.11° C | 68% | 1013.7 hPa | 0 mm | - | - | - |
| 1777555429 | 11.11° C | 68% | 1013.7 hPa | 0 mm | - | - | - |
| 1777555129 | 11.11° C | 68% | 1013.7 hPa | 0 mm | - | - | - |
| 1777554229 | 11.67° C | 68% | 1013.7 hPa | 0 mm | - | - | - |
| 1777553929 | 11.67° C | 68% | 1013.7 hPa | 0 mm | - | - | - |
| 1777553629 | 11.67° C | 68% | 1013.8 hPa | 0 mm | - | - | - |
| 1777552128 | 12.78° C | 70% | 1013.9 hPa | 0 mm | - | - | - |
| 1777551528 | 12.78° C | 70% | 1013.8 hPa | 0 mm | - | - | - |
| 1777550953 | 13.33° C | 71% | 1013.7 hPa | 0 mm | - | - | - |
| 1777548253 | 12.78° C | 71% | 1013.8 hPa | 0 mm | - | - | - |
| 1777547732 | 13.33° C | 70% | 1013.9 hPa | 0 mm | - | - | - |
| 1777547432 | 13.33° C | 70% | 1013.9 hPa | 0 mm | - | - | - |
| 1777546832 | 13.33° C | 69% | 1013.9 hPa | 0 mm | - | - | - |
| 1777546532 | 13.33° C | 68% | 1013.9 hPa | 0 mm | - | - | - |
| 1777545034 | 13.33° C | 68% | 1014 hPa | 0 mm | - | - | - |
| 1777544432 | 13.33° C | 69% | 1014 hPa | 0 mm | - | - | - |
| 1777543232 | 13.33° C | 67% | 1014.2 hPa | 0 mm | - | - | - |
| 1777542932 | 13.33° C | 66% | 1014.1 hPa | 0 mm | - | - | - |
| 1777542332 | 12.78° C | 65% | 1014.1 hPa | 0 mm | - | - | - |
| 1777541132 | 12.78° C | 63% | 1014.2 hPa | 0 mm | - | - | - |
| 1777540832 | 12.78° C | 62% | 1014.2 hPa | 0 mm | - | - | - |
* Rain latest hour (hover to see other rain measurements)
** Current wind speed in m/s (hover to see current wind gust speed)